createdAt,value
2022-12-25T00:00:28.027Z,14.60
2022-12-25T00:02:56.719Z,11.65
2022-12-25T00:05:25.131Z,14.63
2022-12-25T00:07:53.669Z,11.82
2022-12-25T00:10:23.652Z,10.75
2022-12-25T00:12:52.645Z,11.43
2022-12-25T00:15:21.179Z,10.20
2022-12-25T00:17:49.416Z,9.93
2022-12-25T00:20:17.721Z,12.45
2022-12-25T00:22:46.135Z,11.55
2022-12-25T00:25:14.431Z,11.80
2022-12-25T00:27:44.099Z,14.88
2022-12-25T00:30:12.989Z,11.10
2022-12-25T00:32:42.282Z,14.05
2022-12-25T00:35:11.082Z,16.30
2022-12-25T00:37:39.360Z,18.65
2022-12-25T00:40:08.964Z,13.43
2022-12-25T00:42:37.206Z,14.10
2022-12-25T00:45:07.797Z,16.50
2022-12-25T00:47:36.034Z,15.93
2022-12-25T00:50:04.469Z,14.40
2022-12-25T00:52:32.816Z,17.50
2022-12-25T00:55:01.113Z,22.20
2022-12-25T00:57:29.476Z,17.33
2022-12-25T00:59:57.701Z,15.43
2022-12-25T01:02:27.513Z,17.27
2022-12-25T01:04:58.229Z,15.80
2022-12-25T01:07:27.634Z,21.48
2022-12-25T01:10:13.662Z,18.65
2022-12-25T01:12:43.966Z,17.30
2022-12-25T01:15:13.499Z,18.55
2022-12-25T01:17:44.195Z,15.48
2022-12-25T01:20:14.177Z,18.55
2022-12-25T01:22:42.956Z,17.75
2022-12-25T01:25:12.601Z,20.58
2022-12-25T01:27:42.784Z,15.82
2022-12-25T01:30:12.279Z,11.50
2022-12-25T01:32:40.568Z,13.18
2022-12-25T01:35:10.792Z,16.17
2022-12-25T01:37:39.163Z,17.25
2022-12-25T01:40:08.852Z,12.50
2022-12-25T01:42:37.197Z,19.23
2022-12-25T01:45:35.580Z,16.20
2022-12-25T01:48:07.541Z,16.35
2022-12-25T01:50:40.347Z,19.48
2022-12-25T01:53:09.091Z,16.20
2022-12-25T01:55:38.700Z,16.15
2022-12-25T01:58:07.170Z,12.80
2022-12-25T02:00:35.676Z,15.27
2022-12-25T02:03:04.715Z,10.25
2022-12-25T02:05:34.499Z,14.43
2022-12-25T02:08:09.825Z,12.75
2022-12-25T02:10:39.220Z,16.60
2022-12-25T02:13:08.637Z,17.17
2022-12-25T02:15:45.178Z,13.15
2022-12-25T02:18:20.296Z,14.43
2022-12-25T02:21:15.195Z,14.63
2022-12-25T02:24:23.620Z,13.45
2022-12-25T02:27:17.405Z,13.13
2022-12-25T02:29:54.699Z,15.83
2022-12-25T02:32:28.733Z,13.13
2022-12-25T02:35:04.718Z,16.58
2022-12-25T02:37:41.674Z,13.88
2022-12-25T02:40:16.221Z,12.30
2022-12-25T02:43:07.366Z,12.40
2022-12-25T02:45:59.196Z,16.33
2022-12-25T02:48:48.847Z,10.77
2022-12-25T02:51:38.215Z,17.83
2022-12-25T02:54:28.267Z,9.88
2022-12-25T02:57:15.694Z,16.23
2022-12-25T03:00:05.810Z,13.63
2022-12-25T03:02:53.641Z,15.82
2022-12-25T03:05:42.801Z,12.17
2022-12-25T03:08:15.793Z,14.48
2022-12-25T03:11:09.140Z,10.45
2022-12-25T03:13:41.005Z,10.77
2022-12-25T03:16:26.618Z,11.75
2022-12-25T03:18:58.191Z,15.40
2022-12-25T03:21:44.156Z,19.35
2022-12-25T03:24:29.515Z,13.83
2022-12-25T03:26:58.776Z,17.67
2022-12-25T03:29:47.539Z,9.43
2022-12-25T03:32:23.891Z,13.33
2022-12-25T03:35:18.920Z,10.63
2022-12-25T03:38:12.877Z,12.13
2022-12-25T03:41:19.589Z,11.27
2022-12-25T03:44:10.566Z,12.25
2022-12-25T03:47:03.450Z,13.80
2022-12-25T03:49:53.841Z,12.85
2022-12-25T03:52:41.553Z,9.18
2022-12-25T03:55:30.241Z,12.20
2022-12-25T03:58:15.778Z,12.88
2022-12-25T04:01:01.502Z,13.88
2022-12-25T04:03:46.367Z,13.27
2022-12-25T04:06:32.360Z,10.68
2022-12-25T04:09:25.112Z,12.52
2022-12-25T04:12:10.619Z,9.70
2022-12-25T04:14:56.346Z,9.73
2022-12-25T04:17:41.670Z,10.57
2022-12-25T04:20:28.042Z,13.97
2022-12-25T04:23:13.861Z,11.38
2022-12-25T04:26:00.964Z,14.73
2022-12-25T04:28:46.492Z,13.10
2022-12-25T04:31:31.260Z,12.07
2022-12-25T04:34:16.741Z,8.68
2022-12-25T04:36:44.979Z,12.85
2022-12-25T04:39:13.331Z,12.75
2022-12-25T04:41:42.985Z,14.07
2022-12-25T04:44:11.397Z,13.52
2022-12-25T04:46:39.709Z,14.35
2022-12-25T04:49:08.018Z,17.73
2022-12-25T04:51:37.560Z,14.90
2022-12-25T04:54:06.237Z,10.85
2022-12-25T04:56:38.515Z,15.02
2022-12-25T04:59:11.429Z,12.40
2022-12-25T05:01:39.881Z,13.18
2022-12-25T05:04:08.361Z,11.27
2022-12-25T05:06:36.664Z,9.70
2022-12-25T05:09:05.031Z,12.55
2022-12-25T05:11:33.293Z,12.63
2022-12-25T05:14:02.589Z,7.90
2022-12-25T05:16:32.440Z,12.27
2022-12-25T05:19:00.691Z,12.63
2022-12-25T05:21:28.972Z,15.82
2022-12-25T05:23:57.179Z,12.75
2022-12-25T05:26:27.673Z,15.30
2022-12-25T05:28:56.428Z,13.48
2022-12-25T05:31:24.734Z,11.55
2022-12-25T05:33:54.454Z,10.03
2022-12-25T05:36:22.764Z,15.25
2022-12-25T05:38:52.151Z,13.63
2022-12-25T05:41:20.581Z,13.43
2022-12-25T05:43:48.853Z,9.23
2022-12-25T05:46:18.011Z,9.97
2022-12-25T05:48:46.327Z,14.02
2022-12-25T05:51:16.500Z,18.00
2022-12-25T05:53:45.078Z,13.10
2022-12-25T05:56:13.447Z,12.20
2022-12-25T05:58:42.223Z,13.20
2022-12-25T06:01:15.285Z,11.82
2022-12-25T06:03:43.658Z,10.35
2022-12-25T06:06:12.607Z,11.20
2022-12-25T06:08:42.520Z,11.23
2022-12-25T06:11:11.996Z,13.05
2022-12-25T06:13:40.414Z,14.45
2022-12-25T06:16:10.691Z,15.02
2022-12-25T06:18:40.220Z,10.30
2022-12-25T06:21:09.858Z,12.43
2022-12-25T06:23:39.333Z,12.38
2022-12-25T06:26:10.748Z,13.18
2022-12-25T06:28:39.331Z,11.27
2022-12-25T06:31:09.263Z,13.27
2022-12-25T06:33:38.207Z,16.33
2022-12-25T06:36:08.273Z,12.77
2022-12-25T06:38:36.768Z,11.40
2022-12-25T06:41:07.122Z,17.00
2022-12-25T06:43:36.990Z,14.30
2022-12-25T06:46:06.116Z,14.48
2022-12-25T06:48:34.995Z,16.42
2022-12-25T06:51:04.149Z,13.83
2022-12-25T06:53:39.085Z,14.23
2022-12-25T06:56:15.376Z,11.95
2022-12-25T06:58:46.016Z,12.93
2022-12-25T07:01:20.008Z,14.45
2022-12-25T07:03:51.135Z,13.30
2022-12-25T07:06:19.509Z,18.70
2022-12-25T07:08:47.851Z,21.67
2022-12-25T07:11:16.281Z,14.88
2022-12-25T07:13:46.100Z,19.00
2022-12-25T07:16:15.245Z,16.23
2022-12-25T07:18:43.634Z,22.58
2022-12-25T07:21:13.726Z,20.40
2022-12-25T07:23:42.747Z,20.65
2022-12-25T07:26:12.304Z,16.17
2022-12-25T07:28:41.176Z,16.08
2022-12-25T07:31:13.704Z,13.40
2022-12-25T07:33:42.394Z,12.82
2022-12-25T07:36:12.888Z,14.07
2022-12-25T07:38:42.025Z,12.45
2022-12-25T07:41:10.918Z,10.17
2022-12-25T07:43:39.234Z,12.57
2022-12-25T07:46:07.927Z,12.68
2022-12-25T07:48:38.130Z,16.58
2022-12-25T07:51:08.203Z,12.45
2022-12-25T07:53:37.421Z,13.73
2022-12-25T07:56:08.343Z,15.55
2022-12-25T07:58:36.810Z,12.38
2022-12-25T08:01:07.903Z,14.98
2022-12-25T08:03:38.244Z,12.32
2022-12-25T08:06:08.796Z,14.68
2022-12-25T08:08:38.220Z,13.65
2022-12-25T08:11:09.738Z,13.70
2022-12-25T08:13:38.797Z,13.27
2022-12-25T08:16:09.787Z,16.33
2022-12-25T08:18:40.259Z,16.20
2022-12-25T08:21:10.818Z,12.98
2022-12-25T08:23:41.961Z,12.60
2022-12-25T08:26:12.682Z,16.33
2022-12-25T08:28:41.459Z,12.65
2022-12-25T08:31:11.662Z,17.17
2022-12-25T08:33:41.512Z,13.95
2022-12-25T08:36:11.511Z,11.85
2022-12-25T08:38:40.303Z,14.20
2022-12-25T08:41:09.195Z,17.63
2022-12-25T08:43:38.088Z,21.73
2022-12-25T08:46:07.838Z,13.85
2022-12-25T08:48:36.577Z,13.93
2022-12-25T08:51:09.662Z,18.07
2022-12-25T08:53:38.549Z,15.95
2022-12-25T08:56:07.459Z,19.88
2022-12-25T08:58:36.258Z,15.02
2022-12-25T09:01:04.855Z,18.15
2022-12-25T09:03:33.979Z,21.70
2022-12-25T09:06:06.080Z,21.05
2022-12-25T09:08:34.981Z,25.67
2022-12-25T09:11:04.028Z,22.08
2022-12-25T09:13:32.473Z,22.33
2022-12-25T09:16:01.404Z,16.23
2022-12-25T09:18:29.711Z,14.70
2022-12-25T09:21:00.989Z,14.77
2022-12-25T09:23:31.309Z,16.08
2022-12-25T09:26:00.370Z,12.77
2022-12-25T09:28:28.654Z,15.15
2022-12-25T09:30:57.288Z,15.15
2022-12-25T09:33:25.945Z,11.45
2022-12-25T09:35:58.594Z,12.38
2022-12-25T09:38:27.313Z,15.53
2022-12-25T09:41:02.523Z,17.20
2022-12-25T09:43:34.787Z,10.90
2022-12-25T09:46:05.635Z,15.38
2022-12-25T09:48:36.815Z,14.65
2022-12-25T09:51:10.328Z,15.43
2022-12-25T09:53:40.894Z,14.52
2022-12-25T09:56:14.246Z,19.55
2022-12-25T09:58:43.656Z,15.75
2022-12-25T10:01:21.417Z,15.30
2022-12-25T10:04:03.042Z,18.65
2022-12-25T10:06:38.217Z,19.75
2022-12-25T10:09:27.256Z,19.83
2022-12-25T10:12:12.103Z,15.05
2022-12-25T10:14:48.766Z,13.57
2022-12-25T10:17:30.368Z,14.43
2022-12-25T10:20:05.839Z,14.68
2022-12-25T10:22:39.010Z,17.38
2022-12-25T10:25:08.168Z,18.02
2022-12-25T10:27:41.841Z,17.27
2022-12-25T10:30:16.972Z,16.13
2022-12-25T10:32:46.855Z,17.92
2022-12-25T10:35:17.355Z,14.70
2022-12-25T10:37:47.607Z,9.70
2022-12-25T10:40:31.114Z,12.73
2022-12-25T10:43:09.395Z,10.35
2022-12-25T10:45:45.479Z,12.35
2022-12-25T10:48:21.501Z,10.15
2022-12-25T10:50:50.517Z,9.68
2022-12-25T10:53:22.720Z,6.95
2022-12-25T10:55:59.382Z,6.82
2022-12-25T10:58:29.729Z,9.48
2022-12-25T11:01:00.229Z,2.30
2022-12-25T11:03:32.405Z,4.57
2022-12-25T11:06:01.286Z,6.20
2022-12-25T11:08:31.419Z,6.15
2022-12-25T11:11:06.259Z,5.25
2022-12-25T11:13:40.768Z,4.88
2022-12-25T11:16:11.799Z,5.78
2022-12-25T11:18:48.386Z,7.15
2022-12-25T11:21:19.080Z,4.40
2022-12-25T11:23:49.469Z,10.67
2022-12-25T11:26:19.768Z,8.98
2022-12-25T11:28:52.227Z,7.23
2022-12-25T11:31:22.483Z,7.95
2022-12-25T11:33:56.354Z,5.17
2022-12-25T11:36:31.306Z,11.63
2022-12-25T11:39:02.968Z,8.10
2022-12-25T11:41:34.920Z,11.20
2022-12-25T11:44:20.256Z,10.00
2022-12-25T11:46:52.363Z,11.77
2022-12-25T11:49:22.375Z,8.95
2022-12-25T11:51:54.944Z,7.63
2022-12-25T11:54:27.765Z,7.68
2022-12-25T11:56:58.917Z,7.78
2022-12-25T11:59:32.433Z,9.93
2022-12-25T12:02:06.275Z,9.23
2022-12-25T12:04:43.010Z,10.73
2022-12-25T12:07:22.918Z,9.15
2022-12-25T12:10:01.838Z,9.77
2022-12-25T12:12:35.944Z,7.82
2022-12-25T12:15:15.483Z,11.13
2022-12-25T12:17:43.777Z,9.75
2022-12-25T12:20:13.505Z,10.20
2022-12-25T12:22:50.515Z,8.02
2022-12-25T12:25:20.066Z,8.13
2022-12-25T12:27:59.793Z,10.73
2022-12-25T12:30:35.928Z,8.25
2022-12-25T12:33:08.066Z,9.23
2022-12-25T12:35:39.423Z,10.57
2022-12-25T12:38:11.982Z,10.90
2022-12-25T12:40:43.781Z,12.25
2022-12-25T12:43:30.070Z,14.10
2022-12-25T12:46:04.105Z,7.05
2022-12-25T12:48:40.780Z,10.13
2022-12-25T12:51:11.662Z,9.90
2022-12-25T12:53:41.245Z,11.50
2022-12-25T12:56:17.917Z,12.57
2022-12-25T12:58:50.963Z,11.27
2022-12-25T13:01:46.919Z,10.73
2022-12-25T13:04:32.417Z,10.90
2022-12-25T13:07:11.447Z,9.55
2022-12-25T13:09:58.715Z,11.90
2022-12-25T13:12:27.389Z,7.60
2022-12-25T13:14:55.777Z,9.48
2022-12-25T13:17:27.306Z,9.68
2022-12-25T13:19:58.744Z,10.30
2022-12-25T13:22:33.129Z,9.07
2022-12-25T13:25:05.634Z,15.43
2022-12-25T13:27:35.239Z,9.60
2022-12-25T13:30:14.770Z,11.43
2022-12-25T13:32:45.948Z,15.40
2022-12-25T13:35:15.686Z,10.35
2022-12-25T13:37:45.308Z,12.15
2022-12-25T13:40:24.142Z,10.98
2022-12-25T13:42:55.442Z,10.97
2022-12-25T13:45:26.472Z,11.07
2022-12-25T13:47:56.935Z,11.55
2022-12-25T13:50:27.225Z,11.90
2022-12-25T13:52:57.739Z,12.20
2022-12-25T13:55:28.527Z,11.18
2022-12-25T13:57:59.215Z,11.68
2022-12-25T14:00:33.753Z,8.55
2022-12-25T14:03:04.138Z,11.10
2022-12-25T14:05:42.326Z,8.90
2022-12-25T14:08:16.790Z,8.60
2022-12-25T14:10:49.016Z,10.07
2022-12-25T14:13:19.346Z,5.45
2022-12-25T14:15:49.087Z,7.88
2022-12-25T14:18:20.551Z,8.50
2022-12-25T14:20:59.377Z,9.50
2022-12-25T14:23:28.971Z,7.93
2022-12-25T14:25:57.303Z,7.72
2022-12-25T14:28:32.439Z,11.02
2022-12-25T14:31:01.439Z,8.75
2022-12-25T14:33:37.806Z,9.27
2022-12-25T14:36:07.555Z,9.67
2022-12-25T14:38:36.294Z,12.10
2022-12-25T14:41:07.651Z,7.63
2022-12-25T14:43:36.675Z,11.65
2022-12-25T14:46:07.392Z,9.07
2022-12-25T14:48:37.132Z,13.65
2022-12-25T14:51:08.805Z,11.60
2022-12-25T14:53:39.875Z,10.93
2022-12-25T14:56:09.414Z,11.48
2022-12-25T14:58:42.521Z,15.95
2022-12-25T15:01:23.057Z,11.27
2022-12-25T15:03:52.908Z,14.05
2022-12-25T15:06:24.958Z,11.85
2022-12-25T15:08:57.885Z,15.77
2022-12-25T15:11:26.291Z,11.85
2022-12-25T15:13:54.717Z,11.83
2022-12-25T15:16:25.334Z,14.32
2022-12-25T15:18:55.909Z,12.07
2022-12-25T15:21:27.916Z,11.40
2022-12-25T15:23:57.828Z,9.50
2022-12-25T15:26:30.305Z,15.40
2022-12-25T15:28:58.850Z,14.93
2022-12-25T15:31:28.766Z,11.77
2022-12-25T15:34:00.117Z,15.32
2022-12-25T15:36:29.102Z,11.43
2022-12-25T15:38:58.311Z,10.87
2022-12-25T15:41:47.275Z,15.63
2022-12-25T15:44:15.921Z,17.55
2022-12-25T15:46:44.525Z,8.75
2022-12-25T15:49:15.230Z,15.50
2022-12-25T15:51:44.962Z,11.32
2022-12-25T15:54:13.296Z,14.80
2022-12-25T15:56:44.480Z,10.95
2022-12-25T15:59:14.720Z,10.80
2022-12-25T16:01:45.846Z,15.48
2022-12-25T16:04:15.749Z,17.05
2022-12-25T16:06:44.079Z,17.92
2022-12-25T16:09:13.111Z,14.63
2022-12-25T16:11:41.693Z,15.65
2022-12-25T16:14:10.395Z,15.00
2022-12-25T16:16:38.877Z,14.02
2022-12-25T16:19:07.311Z,13.50
2022-12-25T16:21:40.703Z,14.77
2022-12-25T16:24:09.185Z,12.27
2022-12-25T16:26:37.685Z,13.20
2022-12-25T16:29:07.919Z,17.52
2022-12-25T16:31:36.821Z,19.67
2022-12-25T16:34:05.976Z,15.95
2022-12-25T16:36:34.450Z,18.47
2022-12-25T16:39:04.994Z,20.35
2022-12-25T16:41:35.647Z,15.75
2022-12-25T16:44:09.401Z,17.40
2022-12-25T16:46:38.689Z,12.73
2022-12-25T16:49:07.221Z,18.40
2022-12-25T16:51:35.467Z,16.88
2022-12-25T16:54:06.737Z,17.27
2022-12-25T16:56:36.757Z,16.65
2022-12-25T16:59:05.173Z,16.15
2022-12-25T17:01:33.557Z,15.30
2022-12-25T17:04:02.845Z,15.20
2022-12-25T17:06:31.295Z,13.20
2022-12-25T17:09:02.329Z,17.25
2022-12-25T17:11:32.977Z,16.45
2022-12-25T17:14:03.708Z,15.18
2022-12-25T17:16:36.239Z,18.63
2022-12-25T17:19:08.171Z,21.02
2022-12-25T17:21:38.451Z,25.20
2022-12-25T17:24:07.959Z,19.70
2022-12-25T17:26:37.662Z,13.18
2022-12-25T17:29:06.003Z,16.65
2022-12-25T17:31:34.834Z,20.42
2022-12-25T17:34:03.807Z,19.60
2022-12-25T17:36:32.818Z,23.02
2022-12-25T17:39:01.839Z,18.77
2022-12-25T17:41:30.150Z,16.75
2022-12-25T17:43:59.892Z,16.77
2022-12-25T17:46:30.361Z,15.48
2022-12-25T17:49:00.443Z,13.23
2022-12-25T17:51:30.443Z,12.48
2022-12-25T17:54:03.294Z,10.10
2022-12-25T17:56:32.590Z,18.53
2022-12-25T17:59:06.832Z,12.57
2022-12-25T18:01:37.595Z,10.68
2022-12-25T18:04:06.756Z,10.15
2022-12-25T18:06:37.049Z,7.22
2022-12-25T18:09:06.587Z,15.52
2022-12-25T18:11:36.805Z,12.33
2022-12-25T18:14:08.729Z,13.18
2022-12-25T18:16:39.844Z,22.80
2022-12-25T18:19:08.175Z,12.82
2022-12-25T18:21:36.817Z,14.47
2022-12-25T18:24:06.322Z,9.07
2022-12-25T18:26:34.845Z,8.18
2022-12-25T18:29:03.830Z,6.65
2022-12-25T18:31:33.809Z,4.40
2022-12-25T18:34:02.137Z,7.55
2022-12-25T18:36:31.423Z,12.43
2022-12-25T18:39:00.028Z,15.43
2022-12-25T18:41:30.392Z,14.17
2022-12-25T18:44:00.709Z,11.75
2022-12-25T18:46:29.610Z,14.95
2022-12-25T18:48:59.333Z,8.23
2022-12-25T18:51:33.114Z,3.30
2022-12-25T18:54:05.187Z,2.50
2022-12-25T18:56:33.816Z,2.38
2022-12-25T18:59:02.487Z,2.73
2022-12-25T19:01:30.845Z,2.75
2022-12-25T19:04:04.960Z,4.03
2022-12-25T19:06:34.590Z,5.15
2022-12-25T19:09:09.398Z,3.42
2022-12-25T19:11:45.609Z,1.98
2022-12-25T19:14:15.215Z,4.30
2022-12-25T19:16:43.536Z,3.17
2022-12-25T19:19:14.792Z,17.50
2022-12-25T19:21:43.371Z,6.70
2022-12-25T19:24:11.797Z,4.13
2022-12-25T19:26:40.652Z,2.58
2022-12-25T19:29:08.925Z,1.90
2022-12-25T19:31:38.397Z,2.17
2022-12-25T19:34:07.441Z,2.15
2022-12-25T19:36:39.187Z,1.70
2022-12-25T19:39:08.748Z,1.80
2022-12-25T19:41:39.424Z,3.40
2022-12-25T19:44:07.993Z,2.55
2022-12-25T19:46:38.783Z,3.10
2022-12-25T19:49:10.538Z,3.05
2022-12-25T19:51:42.497Z,2.90
2022-12-25T19:54:14.734Z,1.52
2022-12-25T19:56:43.927Z,6.30
2022-12-25T19:59:14.729Z,2.42
2022-12-25T20:01:43.744Z,4.27
2022-12-25T20:04:12.368Z,4.75
2022-12-25T20:06:43.901Z,7.63
2022-12-25T20:09:15.071Z,5.30
2022-12-25T20:11:44.480Z,6.93
2022-12-25T20:14:16.112Z,6.70
2022-12-25T20:16:45.128Z,2.97
2022-12-25T20:19:14.493Z,5.30
2022-12-25T20:21:44.227Z,6.07
2022-12-25T20:24:12.508Z,5.17
2022-12-25T20:26:42.884Z,6.30
2022-12-25T20:29:12.631Z,6.95
2022-12-25T20:31:41.099Z,5.72
2022-12-25T20:34:10.872Z,5.63
2022-12-25T20:36:39.708Z,10.20
2022-12-25T20:39:10.419Z,7.28
2022-12-25T20:41:39.717Z,7.43
2022-12-25T20:44:10.294Z,4.40
2022-12-25T20:46:39.106Z,7.07
2022-12-25T20:49:07.862Z,4.93
2022-12-25T20:51:36.230Z,6.82
2022-12-25T20:54:09.701Z,5.07
2022-12-25T20:56:38.011Z,6.53
2022-12-25T20:59:07.594Z,10.65
2022-12-25T21:01:36.091Z,3.25
2022-12-25T21:04:04.732Z,3.72
2022-12-25T21:06:33.215Z,7.40
2022-12-25T21:09:01.823Z,6.80
2022-12-25T21:11:31.758Z,4.00
2022-12-25T21:14:00.456Z,3.58
2022-12-25T21:16:28.885Z,5.00
2022-12-25T21:18:57.595Z,4.10
2022-12-25T21:21:26.296Z,4.05
2022-12-25T21:23:56.876Z,6.07
2022-12-25T21:26:27.305Z,3.55
2022-12-25T21:29:00.319Z,6.75
2022-12-25T21:31:29.647Z,7.25
2022-12-25T21:33:57.780Z,7.05
2022-12-25T21:36:29.211Z,4.30
2022-12-25T21:38:59.778Z,5.57
2022-12-25T21:41:29.598Z,5.65
2022-12-25T21:43:59.696Z,6.43
2022-12-25T21:46:29.118Z,7.75
2022-12-25T21:48:58.009Z,5.30
2022-12-25T21:51:46.170Z,7.20
2022-12-25T21:54:15.622Z,7.05
2022-12-25T21:56:47.674Z,7.00
2022-12-25T21:59:19.189Z,4.80
2022-12-25T22:01:47.838Z,5.60
2022-12-25T22:04:17.441Z,9.30
2022-12-25T22:07:03.827Z,7.47
2022-12-25T22:09:32.333Z,4.63
2022-12-25T22:12:18.483Z,6.57
2022-12-25T22:14:58.042Z,7.57
2022-12-25T22:17:45.622Z,9.38
2022-12-25T22:20:16.753Z,9.18
2022-12-25T22:22:45.588Z,5.38
2022-12-25T22:25:14.631Z,6.63
2022-12-25T22:27:44.615Z,5.78
2022-12-25T22:30:15.948Z,5.60
2022-12-25T22:32:44.534Z,7.85
2022-12-25T22:35:13.609Z,5.93
2022-12-25T22:37:42.594Z,5.90
2022-12-25T22:40:13.727Z,4.38
2022-12-25T22:42:42.064Z,5.47
2022-12-25T22:45:11.793Z,4.35
2022-12-25T22:47:41.994Z,6.63
2022-12-25T22:50:11.885Z,7.35
2022-12-25T22:52:40.501Z,8.35
2022-12-25T22:55:10.759Z,6.65
2022-12-25T22:57:39.235Z,6.65
2022-12-25T23:00:09.922Z,5.67
2022-12-25T23:02:38.533Z,6.70
2022-12-25T23:05:09.381Z,7.43
2022-12-25T23:07:37.686Z,6.45
2022-12-25T23:10:06.952Z,8.52
2022-12-25T23:12:53.181Z,10.93
2022-12-25T23:15:21.700Z,10.18
2022-12-25T23:18:07.455Z,6.22
2022-12-25T23:20:55.347Z,8.65
2022-12-25T23:23:40.786Z,9.25
2022-12-25T23:26:09.275Z,9.40
2022-12-25T23:28:56.291Z,7.15
2022-12-25T23:31:29.712Z,9.38
2022-12-25T23:33:58.373Z,8.07
2022-12-25T23:36:28.097Z,9.95
2022-12-25T23:38:56.439Z,6.18
2022-12-25T23:41:24.828Z,7.78
2022-12-25T23:43:53.212Z,7.43
2022-12-25T23:46:21.599Z,6.47
2022-12-25T23:48:50.065Z,6.85
2022-12-25T23:51:18.334Z,7.90
2022-12-25T23:53:48.006Z,9.57
2022-12-25T23:56:16.386Z,8.37
2022-12-25T23:58:45.322Z,6.13
